sensor_id;sensor_type;location;lat;lon;timestamp;pressure;altitude;pressure_sealevel;temperature;humidity
29467;BME280;60968;37.490;-122.288;2022-09-30T00:00:12;98639.63;;;25.22;47.00
29467;BME280;60968;37.490;-122.288;2022-09-30T00:03:32;98639.03;;;25.07;47.69
29467;BME280;60968;37.490;-122.288;2022-09-30T00:06:33;98633.59;;;24.86;47.89
29467;BME280;60968;37.490;-122.288;2022-09-30T00:09:54;98627.66;;;24.60;48.28
29467;BME280;60968;37.490;-122.288;2022-09-30T00:12:55;98619.75;;;24.47;48.66
29467;BME280;60968;37.490;-122.288;2022-09-30T00:15:55;98622.06;;;24.40;49.11
29467;BME280;60968;37.490;-122.288;2022-09-30T00:18:57;98627.25;;;24.30;49.16
29467;BME280;60968;37.490;-122.288;2022-09-30T00:22:02;98615.25;;;24.13;49.42
29467;BME280;60968;37.490;-122.288;2022-09-30T00:25:03;98620.03;;;23.97;50.07
29467;BME280;60968;37.490;-122.288;2022-09-30T00:28:04;98619.00;;;23.87;50.17
29467;BME280;60968;37.490;-122.288;2022-09-30T00:31:14;98615.59;;;23.85;50.66
29467;BME280;60968;37.490;-122.288;2022-09-30T00:34:15;98612.66;;;23.76;50.64
29467;BME280;60968;37.490;-122.288;2022-09-30T00:37:15;98612.50;;;23.67;50.62
29467;BME280;60968;37.490;-122.288;2022-09-30T00:40:18;98608.69;;;23.46;51.06
29467;BME280;60968;37.490;-122.288;2022-09-30T00:46:41;98601.06;;;23.42;51.59
29467;BME280;60968;37.490;-122.288;2022-09-30T00:49:42;98597.16;;;23.35;51.98
29467;BME280;60968;37.490;-122.288;2022-09-30T00:52:47;98600.59;;;23.24;52.08
29467;BME280;60968;37.490;-122.288;2022-09-30T00:55:53;98598.47;;;23.16;52.18
29467;BME280;60968;37.490;-122.288;2022-09-30T00:59:21;98598.25;;;23.06;52.18
29467;BME280;60968;37.490;-122.288;2022-09-30T01:02:23;98590.00;;;22.98;53.05
29467;BME280;60968;37.490;-122.288;2022-09-30T01:05:25;98592.19;;;22.80;53.44
29467;BME280;60968;37.490;-122.288;2022-09-30T01:08:27;98593.56;;;22.60;53.56
29467;BME280;60968;37.490;-122.288;2022-09-30T01:11:29;98589.44;;;22.43;53.94
29467;BME280;60968;37.490;-122.288;2022-09-30T01:14:30;98591.34;;;22.28;53.94
29467;BME280;60968;37.490;-122.288;2022-09-30T01:17:52;98594.00;;;22.15;54.22
29467;BME280;60968;37.490;-122.288;2022-09-30T01:21:05;98596.44;;;22.05;54.26
29467;BME280;60968;37.490;-122.288;2022-09-30T01:34:52;98600.28;;;21.47;56.78
29467;BME280;60968;37.490;-122.288;2022-09-30T01:41:43;98608.22;;;21.19;57.58
29467;BME280;60968;37.490;-122.288;2022-09-30T01:44:58;98594.47;;;21.00;58.81
29467;BME280;60968;37.490;-122.288;2022-09-30T01:48:08;98596.38;;;20.83;59.60
29467;BME280;60968;37.490;-122.288;2022-09-30T01:51:31;98593.06;;;20.65;59.79
29467;BME280;60968;37.490;-122.288;2022-09-30T01:54:54;98599.69;;;20.58;59.76
29467;BME280;60968;37.490;-122.288;2022-09-30T01:58:12;98593.44;;;20.59;58.58
29467;BME280;60968;37.490;-122.288;2022-09-30T02:01:21;98584.63;;;20.59;58.06
29467;BME280;60968;37.490;-122.288;2022-09-30T02:04:30;98598.91;;;20.56;57.88
29467;BME280;60968;37.490;-122.288;2022-09-30T02:07:37;98589.47;;;20.52;57.52
29467;BME280;60968;37.490;-122.288;2022-09-30T02:10:54;98588.72;;;20.50;56.98
29467;BME280;60968;37.490;-122.288;2022-09-30T02:14:17;98578.97;;;20.50;56.46
29467;BME280;60968;37.490;-122.288;2022-09-30T02:17:34;98581.72;;;20.49;55.83
29467;BME280;60968;37.490;-122.288;2022-09-30T02:20:40;98581.72;;;20.49;54.95
29467;BME280;60968;37.490;-122.288;2022-09-30T02:23:45;98580.88;;;20.48;54.41
29467;BME280;60968;37.490;-122.288;2022-09-30T02:26:48;98574.91;;;20.45;54.47
29467;BME280;60968;37.490;-122.288;2022-09-30T02:29:52;98568.09;;;20.40;54.13
29467;BME280;60968;37.490;-122.288;2022-09-30T02:33:05;98571.13;;;20.34;53.71
29467;BME280;60968;37.490;-122.288;2022-09-30T02:36:19;98575.84;;;20.29;53.46
29467;BME280;60968;37.490;-122.288;2022-09-30T02:39:40;98570.94;;;20.23;52.88
29467;BME280;60968;37.490;-122.288;2022-09-30T02:42:44;98568.28;;;20.23;52.96
29467;BME280;60968;37.490;-122.288;2022-09-30T02:46:18;98563.00;;;20.23;52.09
29467;BME280;60968;37.490;-122.288;2022-09-30T02:58:53;98572.66;;;20.24;50.91
29467;BME280;60968;37.490;-122.288;2022-09-30T03:01:57;98567.38;;;20.24;50.58
29467;BME280;60968;37.490;-122.288;2022-09-30T03:04:58;98569.81;;;20.27;50.02
29467;BME280;60968;37.490;-122.288;2022-09-30T03:08:00;98559.34;;;20.26;50.37
29467;BME280;60968;37.490;-122.288;2022-09-30T03:11:02;98563.00;;;20.23;49.98
29467;BME280;60968;37.490;-122.288;2022-09-30T03:14:26;98564.97;;;20.19;50.00
29467;BME280;60968;37.490;-122.288;2022-09-30T03:17:53;98558.25;;;20.14;50.48
29467;BME280;60968;37.490;-122.288;2022-09-30T03:24:20;98570.06;;;19.94;51.26
29467;BME280;60968;37.490;-122.288;2022-09-30T03:27:34;98581.19;;;19.84;51.80
29467;BME280;60968;37.490;-122.288;2022-09-30T03:31:38;98577.13;;;19.63;52.37
29467;BME280;60968;37.490;-122.288;2022-09-30T03:34:35;98579.38;;;19.39;53.62
29467;BME280;60968;37.490;-122.288;2022-09-30T03:47:14;98590.91;;;19.06;55.40
29467;BME280;60968;37.490;-122.288;2022-09-30T03:50:19;98591.34;;;19.14;55.83
29467;BME280;60968;37.490;-122.288;2022-09-30T03:55:46;98586.84;;;19.16;56.88
29467;BME280;60968;37.490;-122.288;2022-09-30T03:58:47;98586.84;;;19.16;57.69
29467;BME280;60968;37.490;-122.288;2022-09-30T04:01:48;98585.22;;;19.13;59.13
29467;BME280;60968;37.490;-122.288;2022-09-30T04:04:49;98584.50;;;19.10;60.08
29467;BME280;60968;37.490;-122.288;2022-09-30T04:07:50;98585.63;;;19.06;60.94
29467;BME280;60968;37.490;-122.288;2022-09-30T04:10:51;98578.91;;;19.00;62.54
29467;BME280;60968;37.490;-122.288;2022-09-30T04:13:52;98581.81;;;18.95;63.66
29467;BME280;60968;37.490;-122.288;2022-09-30T04:16:52;98573.44;;;18.87;64.67
29467;BME280;60968;37.490;-122.288;2022-09-30T04:19:53;98576.56;;;18.78;65.98
29467;BME280;60968;37.490;-122.288;2022-09-30T04:22:57;98571.03;;;18.66;67.53
29467;BME280;60968;37.490;-122.288;2022-09-30T04:25:58;98569.66;;;18.59;68.64
29467;BME280;60968;37.490;-122.288;2022-09-30T04:28:59;98569.81;;;18.56;69.68
29467;BME280;60968;37.490;-122.288;2022-09-30T04:32:00;98577.16;;;18.51;70.54
29467;BME280;60968;37.490;-122.288;2022-09-30T04:35:01;98578.25;;;18.47;71.74
29467;BME280;60968;37.490;-122.288;2022-09-30T04:38:01;98579.59;;;18.38;72.71
29467;BME280;60968;37.490;-122.288;2022-09-30T04:41:04;98570.13;;;18.34;72.97
29467;BME280;60968;37.490;-122.288;2022-09-30T04:44:05;98566.72;;;18.32;73.23
29467;BME280;60968;37.490;-122.288;2022-09-30T04:47:06;98563.41;;;18.28;73.02
29467;BME280;60968;37.490;-122.288;2022-09-30T04:50:07;98561.06;;;18.22;72.95
29467;BME280;60968;37.490;-122.288;2022-09-30T04:53:12;98563.09;;;18.17;72.89
29467;BME280;60968;37.490;-122.288;2022-09-30T04:56:14;98565.22;;;18.10;72.91
29467;BME280;60968;37.490;-122.288;2022-09-30T04:59:14;98557.84;;;17.99;73.42
29467;BME280;60968;37.490;-122.288;2022-09-30T05:02:15;98554.66;;;17.93;73.61
29467;BME280;60968;37.490;-122.288;2022-09-30T05:05:16;98566.19;;;17.90;73.55
29467;BME280;60968;37.490;-122.288;2022-09-30T05:08:17;98563.78;;;17.86;73.52
29467;BME280;60968;37.490;-122.288;2022-09-30T05:11:20;98567.44;;;17.83;73.57
29467;BME280;60968;37.490;-122.288;2022-09-30T05:14:20;98565.97;;;17.77;73.63
29467;BME280;60968;37.490;-122.288;2022-09-30T05:17:21;98567.13;;;17.72;74.10
29467;BME280;60968;37.490;-122.288;2022-09-30T05:20:22;98570.00;;;17.67;76.47
29467;BME280;60968;37.490;-122.288;2022-09-30T05:23:24;98580.78;;;17.62;78.09
29467;BME280;60968;37.490;-122.288;2022-09-30T05:26:25;98567.81;;;17.58;79.55
29467;BME280;60968;37.490;-122.288;2022-09-30T05:29:26;98573.16;;;17.56;80.92
29467;BME280;60968;37.490;-122.288;2022-09-30T05:32:27;98575.03;;;17.54;82.64
29467;BME280;60968;37.490;-122.288;2022-09-30T05:35:28;98573.63;;;17.47;83.66
29467;BME280;60968;37.490;-122.288;2022-09-30T05:38:29;98566.81;;;17.43;84.93
29467;BME280;60968;37.490;-122.288;2022-09-30T05:41:30;98580.13;;;17.40;86.38
29467;BME280;60968;37.490;-122.288;2022-09-30T05:44:31;98578.59;;;17.36;87.24
29467;BME280;60968;37.490;-122.288;2022-09-30T05:47:32;98576.16;;;17.31;88.90
29467;BME280;60968;37.490;-122.288;2022-09-30T05:50:33;98572.28;;;17.21;89.67
29467;BME280;60968;37.490;-122.288;2022-09-30T05:53:36;98570.88;;;17.13;90.83
29467;BME280;60968;37.490;-122.288;2022-09-30T05:56:38;98574.66;;;17.08;91.72
29467;BME280;60968;37.490;-122.288;2022-09-30T05:59:38;98572.28;;;17.02;92.40
29467;BME280;60968;37.490;-122.288;2022-09-30T06:02:40;98573.38;;;16.97;93.15
29467;BME280;60968;37.490;-122.288;2022-09-30T06:05:42;98574.22;;;16.98;93.15
29467;BME280;60968;37.490;-122.288;2022-09-30T06:08:43;98571.44;;;17.01;93.42
29467;BME280;60968;37.490;-122.288;2022-09-30T06:11:44;98565.19;;;17.04;93.09
29467;BME280;60968;37.490;-122.288;2022-09-30T06:14:45;98563.19;;;17.09;91.12
29467;BME280;60968;37.490;-122.288;2022-09-30T06:17:51;98565.44;;;17.17;89.72
29467;BME280;60968;37.490;-122.288;2022-09-30T06:20:56;98569.56;;;17.22;88.57
29467;BME280;60968;37.490;-122.288;2022-09-30T06:23:58;98563.66;;;17.17;88.10
29467;BME280;60968;37.490;-122.288;2022-09-30T06:26:59;98562.88;;;17.15;88.09
29467;BME280;60968;37.490;-122.288;2022-09-30T06:30:00;98562.81;;;17.17;87.42
29467;BME280;60968;37.490;-122.288;2022-09-30T06:33:01;98557.47;;;17.18;87.04
29467;BME280;60968;37.490;-122.288;2022-09-30T06:36:03;98555.75;;;17.17;86.49
29467;BME280;60968;37.490;-122.288;2022-09-30T06:39:04;98562.72;;;17.18;86.31
29467;BME280;60968;37.490;-122.288;2022-09-30T06:42:05;98563.53;;;17.20;85.64
29467;BME280;60968;37.490;-122.288;2022-09-30T06:45:07;98557.53;;;17.17;86.53
29467;BME280;60968;37.490;-122.288;2022-09-30T06:48:08;98554.91;;;17.17;86.91
29467;BME280;60968;37.490;-122.288;2022-09-30T06:51:09;98547.81;;;17.19;87.11
29467;BME280;60968;37.490;-122.288;2022-09-30T06:54:10;98559.19;;;17.19;87.14
29467;BME280;60968;37.490;-122.288;2022-09-30T06:57:11;98544.94;;;17.23;87.05
29467;BME280;60968;37.490;-122.288;2022-09-30T07:00:13;98551.69;;;17.29;86.90
29467;BME280;60968;37.490;-122.288;2022-09-30T07:03:22;98548.81;;;17.34;86.49
29467;BME280;60968;37.490;-122.288;2022-09-30T07:06:24;98547.13;;;17.32;86.35
29467;BME280;60968;37.490;-122.288;2022-09-30T07:09:25;98545.34;;;17.33;85.34
29467;BME280;60968;37.490;-122.288;2022-09-30T07:12:26;98536.38;;;17.37;84.80
29467;BME280;60968;37.490;-122.288;2022-09-30T07:15:27;98536.38;;;17.37;83.94
29467;BME280;60968;37.490;-122.288;2022-09-30T07:18:28;98531.09;;;17.37;82.65
29467;BME280;60968;37.490;-122.288;2022-09-30T07:21:29;98529.31;;;17.38;82.27
29467;BME280;60968;37.490;-122.288;2022-09-30T07:24:30;98527.75;;;17.34;82.14
29467;BME280;60968;37.490;-122.288;2022-09-30T07:27:32;98518.38;;;17.28;81.59
29467;BME280;60968;37.490;-122.288;2022-09-30T07:30:32;98517.06;;;17.19;81.40
29467;BME280;60968;37.490;-122.288;2022-09-30T07:33:35;98515.66;;;17.12;81.33
29467;BME280;60968;37.490;-122.288;2022-09-30T07:36:40;98515.88;;;17.07;81.39
29467;BME280;60968;37.490;-122.288;2022-09-30T07:39:42;98512.31;;;17.08;79.72
29467;BME280;60968;37.490;-122.288;2022-09-30T07:42:43;98504.97;;;17.15;78.22
29467;BME280;60968;37.490;-122.288;2022-09-30T07:45:44;98498.72;;;17.18;77.02
29467;BME280;60968;37.490;-122.288;2022-09-30T07:48:46;98498.25;;;17.27;74.74
29467;BME280;60968;37.490;-122.288;2022-09-30T07:51:47;98499.72;;;17.32;74.50
29467;BME280;60968;37.490;-122.288;2022-09-30T07:54:49;98505.44;;;17.41;73.65
29467;BME280;60968;37.490;-122.288;2022-09-30T07:57:50;98493.00;;;17.44;73.27
29467;BME280;60968;37.490;-122.288;2022-09-30T08:00:51;98499.97;;;17.45;72.26
29467;BME280;60968;37.490;-122.288;2022-09-30T08:03:55;98488.81;;;17.40;72.06
29467;BME280;60968;37.490;-122.288;2022-09-30T08:06:59;98502.22;;;17.36;71.62
29467;BME280;60968;37.490;-122.288;2022-09-30T08:10:00;98494.44;;;17.32;71.80
29467;BME280;60968;37.490;-122.288;2022-09-30T08:13:01;98493.59;;;17.32;71.95
29467;BME280;60968;37.490;-122.288;2022-09-30T08:16:02;98489.34;;;17.29;71.70
29467;BME280;60968;37.490;-122.288;2022-09-30T08:19:03;98485.88;;;17.29;71.36
29467;BME280;60968;37.490;-122.288;2022-09-30T08:22:04;98482.41;;;17.28;71.35
29467;BME280;60968;37.490;-122.288;2022-09-30T08:25:05;98482.69;;;17.22;71.54
29467;BME280;60968;37.490;-122.288;2022-09-30T08:28:06;98474.22;;;17.15;71.36
29467;BME280;60968;37.490;-122.288;2022-09-30T08:31:10;98477.25;;;17.08;72.23
29467;BME280;60968;37.490;-122.288;2022-09-30T08:34:13;98479.97;;;17.06;74.55
29467;BME280;60968;37.490;-122.288;2022-09-30T08:37:14;98487.78;;;17.08;76.67
29467;BME280;60968;37.490;-122.288;2022-09-30T08:40:24;98485.22;;;17.06;78.95
29467;BME280;60968;37.490;-122.288;2022-09-30T08:43:37;98489.31;;;16.94;79.68
29467;BME280;60968;37.490;-122.288;2022-09-30T08:47:09;98485.31;;;16.86;80.68
29467;BME280;60968;37.490;-122.288;2022-09-30T08:54:14;98490.47;;;16.70;82.13
29467;BME280;60968;37.490;-122.288;2022-09-30T08:57:16;98482.00;;;16.63;82.80
29467;BME280;60968;37.490;-122.288;2022-09-30T09:00:18;98479.69;;;16.57;83.43
29467;BME280;60968;37.490;-122.288;2022-09-30T09:03:20;98480.84;;;16.50;84.00
29467;BME280;60968;37.490;-122.288;2022-09-30T09:16:24;98483.13;;;16.38;83.36
29467;BME280;60968;37.490;-122.288;2022-09-30T09:19:45;98486.50;;;16.42;83.10
29467;BME280;60968;37.490;-122.288;2022-09-30T09:22:50;98487.41;;;16.41;82.36
29467;BME280;60968;37.490;-122.288;2022-09-30T09:25:51;98490.03;;;16.41;81.76
29467;BME280;60968;37.490;-122.288;2022-09-30T09:32:24;98488.75;;;16.31;81.93
29467;BME280;60968;37.490;-122.288;2022-09-30T09:35:37;98488.19;;;16.24;82.95
29467;BME280;60968;37.490;-122.288;2022-09-30T09:45:54;98484.81;;;16.01;87.36
29467;BME280;60968;37.490;-122.288;2022-09-30T09:49:25;98482.41;;;15.97;88.55
29467;BME280;60968;37.490;-122.288;2022-09-30T09:55:53;98487.22;;;15.87;90.48
29467;BME280;60968;37.490;-122.288;2022-09-30T09:59:16;98470.72;;;15.83;91.43
29467;BME280;60968;37.490;-122.288;2022-09-30T10:02:22;98477.84;;;15.81;92.28
29467;BME280;60968;37.490;-122.288;2022-09-30T10:05:23;98482.03;;;15.85;92.34
29467;BME280;60968;37.490;-122.288;2022-09-30T10:08:26;98467.19;;;15.84;92.83
29467;BME280;60968;37.490;-122.288;2022-09-30T10:11:27;98467.25;;;15.83;93.69
29467;BME280;60968;37.490;-122.288;2022-09-30T10:14:28;98468.84;;;15.87;94.46
29467;BME280;60968;37.490;-122.288;2022-09-30T10:17:34;98463.66;;;15.85;94.79
29467;BME280;60968;37.490;-122.288;2022-09-30T10:20:36;98462.66;;;15.88;95.19
29467;BME280;60968;37.490;-122.288;2022-09-30T10:23:39;98462.84;;;15.83;96.79
29467;BME280;60968;37.490;-122.288;2022-09-30T10:26:43;98453.41;;;15.79;97.77
29467;BME280;60968;37.490;-122.288;2022-09-30T10:29:46;98463.25;;;15.74;98.45
29467;BME280;60968;37.490;-122.288;2022-09-30T10:32:47;98455.75;;;15.65;99.18
29467;BME280;60968;37.490;-122.288;2022-09-30T10:36:09;98457.78;;;15.58;100.00
29467;BME280;60968;37.490;-122.288;2022-09-30T10:39:27;98456.09;;;15.57;100.00
29467;BME280;60968;37.490;-122.288;2022-09-30T10:42:32;98446.72;;;15.51;100.00
29467;BME280;60968;37.490;-122.288;2022-09-30T10:45:39;98449.34;;;15.51;100.00
29467;BME280;60968;37.490;-122.288;2022-09-30T10:48:40;98445.91;;;15.49;100.00
29467;BME280;60968;37.490;-122.288;2022-09-30T10:51:45;98452.28;;;15.43;100.00
29467;BME280;60968;37.490;-122.288;2022-09-30T10:57:51;98455.88;;;15.41;100.00
29467;BME280;60968;37.490;-122.288;2022-09-30T11:01:01;98449.00;;;15.38;100.00
29467;BME280;60968;37.490;-122.288;2022-09-30T11:07:28;98441.31;;;15.34;100.00
29467;BME280;60968;37.490;-122.288;2022-09-30T11:11:07;98444.16;;;15.29;100.00
29467;BME280;60968;37.490;-122.288;2022-09-30T11:20:56;98435.94;;;15.37;100.00
29467;BME280;60968;37.490;-122.288;2022-09-30T11:30:35;98435.16;;;15.35;100.00
29467;BME280;60968;37.490;-122.288;2022-09-30T12:00:24;98433.44;;;15.54;100.00
29467;BME280;60968;37.490;-122.288;2022-09-30T12:03:32;98434.22;;;15.56;100.00
29467;BME280;60968;37.490;-122.288;2022-09-30T12:10:00;98432.34;;;15.60;100.00
29467;BME280;60968;37.490;-122.288;2022-09-30T12:13:15;98425.44;;;15.57;100.00
29467;BME280;60968;37.490;-122.288;2022-09-30T12:16:20;98436.25;;;15.50;100.00
29467;BME280;60968;37.490;-122.288;2022-09-30T12:19:37;98429.50;;;15.44;100.00
29467;BME280;60968;37.490;-122.288;2022-09-30T12:22:43;98430.22;;;15.27;100.00
29467;BME280;60968;37.490;-122.288;2022-09-30T12:25:56;98434.91;;;15.20;100.00
29467;BME280;60968;37.490;-122.288;2022-09-30T12:29:23;98435.00;;;15.17;100.00
29467;BME280;60968;37.490;-122.288;2022-09-30T12:49:49;98436.00;;;15.15;100.00
29467;BME280;60968;37.490;-122.288;2022-09-30T12:52:54;98445.38;;;15.00;100.00
29467;BME280;60968;37.490;-122.288;2022-09-30T12:56:07;98437.81;;;14.92;100.00
29467;BME280;60968;37.490;-122.288;2022-09-30T12:59:12;98438.75;;;14.91;100.00
29467;BME280;60968;37.490;-122.288;2022-09-30T13:02:32;98444.09;;;14.88;100.00
29467;BME280;60968;37.490;-122.288;2022-09-30T13:09:05;98444.56;;;14.98;100.00
29467;BME280;60968;37.490;-122.288;2022-09-30T13:21:28;98436.59;;;15.01;100.00
29467;BME280;60968;37.490;-122.288;2022-09-30T13:28:27;98430.69;;;15.16;98.55
29467;BME280;60968;37.490;-122.288;2022-09-30T13:34:53;98430.50;;;15.21;95.84
29467;BME280;60968;37.490;-122.288;2022-09-30T13:41:22;98439.22;;;15.21;93.56
29467;BME280;60968;37.490;-122.288;2022-09-30T13:50:54;98427.59;;;15.27;92.48
29467;BME280;60968;37.490;-122.288;2022-09-30T13:54:01;98425.50;;;15.35;91.82
29467;BME280;60968;37.490;-122.288;2022-09-30T13:57:06;98422.81;;;15.37;91.46
29467;BME280;60968;37.490;-122.288;2022-09-30T14:00:20;98425.28;;;15.40;90.00
29467;BME280;60968;37.490;-122.288;2022-09-30T14:03:55;98427.16;;;15.38;89.44
29467;BME280;60968;37.490;-122.288;2022-09-30T14:10:58;98432.13;;;15.44;88.70
29467;BME280;60968;37.490;-122.288;2022-09-30T14:17:39;98436.47;;;15.66;85.26
29467;BME280;60968;37.490;-122.288;2022-09-30T14:24:12;98443.94;;;16.15;81.66
29467;BME280;60968;37.490;-122.288;2022-09-30T14:27:39;98451.81;;;16.34;81.25
29467;BME280;60968;37.490;-122.288;2022-09-30T14:30:43;98454.44;;;16.53;76.98
29467;BME280;60968;37.490;-122.288;2022-09-30T14:33:47;98450.69;;;16.76;76.49
29467;BME280;60968;37.490;-122.288;2022-09-30T14:36:50;98448.06;;;16.95;75.75
29467;BME280;60968;37.490;-122.288;2022-09-30T14:39:53;98447.06;;;17.15;73.60
29467;BME280;60968;37.490;-122.288;2022-09-30T14:42:58;98453.88;;;17.37;72.33
29467;BME280;60968;37.490;-122.288;2022-09-30T14:46:07;98448.44;;;17.57;71.15
29467;BME280;60968;37.490;-122.288;2022-09-30T14:49:17;98458.34;;;17.70;70.58
29467;BME280;60968;37.490;-122.288;2022-09-30T14:52:41;98447.56;;;17.92;70.24
29467;BME280;60968;37.490;-122.288;2022-09-30T14:55:42;98456.28;;;18.26;67.76
29467;BME280;60968;37.490;-122.288;2022-09-30T14:58:49;98455.25;;;18.60;66.26
29467;BME280;60968;37.490;-122.288;2022-09-30T15:01:55;98456.13;;;18.77;65.96
29467;BME280;60968;37.490;-122.288;2022-09-30T15:04:57;98463.66;;;19.15;65.25
29467;BME280;60968;37.490;-122.288;2022-09-30T15:07:58;98457.16;;;19.65;64.70
29467;BME280;60968;37.490;-122.288;2022-09-30T15:10:59;98457.34;;;19.48;65.05
29467;BME280;60968;37.490;-122.288;2022-09-30T15:14:12;98461.09;;;19.44;64.59
29467;BME280;60968;37.490;-122.288;2022-09-30T15:17:22;98463.66;;;19.45;65.49
29467;BME280;60968;37.490;-122.288;2022-09-30T15:20:32;98463.06;;;19.40;66.26
29467;BME280;60968;37.490;-122.288;2022-09-30T15:23:36;98464.50;;;19.46;66.26
29467;BME280;60968;37.490;-122.288;2022-09-30T15:26:38;98462.44;;;19.51;67.54
29467;BME280;60968;37.490;-122.288;2022-09-30T15:29:55;98469.41;;;19.52;70.36
29467;BME280;60968;37.490;-122.288;2022-09-30T15:32:58;98475.84;;;19.62;72.09
29467;BME280;60968;37.490;-122.288;2022-09-30T15:36:12;98464.25;;;19.65;72.75
29467;BME280;60968;37.490;-122.288;2022-09-30T15:39:26;98466.81;;;19.66;73.31
29467;BME280;60968;37.490;-122.288;2022-09-30T15:42:38;98469.25;;;19.69;74.52
29467;BME280;60968;37.490;-122.288;2022-09-30T15:45:44;98468.47;;;19.67;75.32
29467;BME280;60968;37.490;-122.288;2022-09-30T15:48:46;98469.34;;;19.68;73.48
29467;BME280;60968;37.490;-122.288;2022-09-30T15:51:47;98472.88;;;19.83;70.56
29467;BME280;60968;37.490;-122.288;2022-09-30T15:54:48;98473.66;;;19.99;72.62
29467;BME280;60968;37.490;-122.288;2022-09-30T15:57:49;98473.84;;;19.96;68.86
29467;BME280;60968;37.490;-122.288;2022-09-30T16:00:50;98470.44;;;20.09;69.60
29467;BME280;60968;37.490;-122.288;2022-09-30T16:03:56;98475.72;;;20.23;70.35
29467;BME280;60968;37.490;-122.288;2022-09-30T16:07:08;98477.34;;;20.26;69.51
29467;BME280;60968;37.490;-122.288;2022-09-30T16:10:18;98476.56;;;20.23;68.79
29467;BME280;60968;37.490;-122.288;2022-09-30T16:13:21;98476.56;;;20.23;71.18
29467;BME280;60968;37.490;-122.288;2022-09-30T16:16:25;98475.91;;;20.20;69.53
29467;BME280;60968;37.490;-122.288;2022-09-30T16:19:28;98481.19;;;20.34;69.66
29467;BME280;60968;37.490;-122.288;2022-09-30T16:25:39;98475.28;;;20.58;67.95
29467;BME280;60968;37.490;-122.288;2022-09-30T16:28:41;98472.94;;;20.68;66.58
29467;BME280;60968;37.490;-122.288;2022-09-30T16:31:43;98472.25;;;20.79;66.16
29467;BME280;60968;37.490;-122.288;2022-09-30T16:34:45;98476.56;;;20.94;64.16
29467;BME280;60968;37.490;-122.288;2022-09-30T16:37:50;98474.09;;;21.18;60.59
29467;BME280;60968;37.490;-122.288;2022-09-30T16:40:58;98471.38;;;21.46;57.60
29467;BME280;60968;37.490;-122.288;2022-09-30T16:43:58;98476.81;;;21.57;56.07
29467;BME280;60968;37.490;-122.288;2022-09-30T16:47:00;98480.25;;;21.85;56.41
29467;BME280;60968;37.490;-122.288;2022-09-30T16:50:01;98483.38;;;23.98;50.08
29467;BME280;60968;37.490;-122.288;2022-09-30T16:53:02;98477.47;;;29.20;38.06
29467;BME280;60968;37.490;-122.288;2022-09-30T16:56:03;98473.34;;;31.83;31.66
29467;BME280;60968;37.490;-122.288;2022-09-30T16:59:08;98467.75;;;32.57;29.70
29467;BME280;60968;37.490;-122.288;2022-09-30T17:02:13;98468.22;;;33.61;28.30
29467;BME280;60968;37.490;-122.288;2022-09-30T17:05:16;98456.84;;;33.89;24.32
29467;BME280;60968;37.490;-122.288;2022-09-30T17:08:18;98458.56;;;34.72;24.93
29467;BME280;60968;37.490;-122.288;2022-09-30T17:11:23;98456.81;;;35.22;23.06
29467;BME280;60968;37.490;-122.288;2022-09-30T17:14:24;98463.66;;;35.68;23.08
29467;BME280;60968;37.490;-122.288;2022-09-30T17:17:25;98463.72;;;36.38;22.29
29467;BME280;60968;37.490;-122.288;2022-09-30T17:20:26;98464.19;;;37.03;22.39
29467;BME280;60968;37.490;-122.288;2022-09-30T17:23:27;98460.22;;;37.19;21.17
29467;BME280;60968;37.490;-122.288;2022-09-30T17:26:27;98452.94;;;37.87;19.89
29467;BME280;60968;37.490;-122.288;2022-09-30T17:29:28;98447.28;;;37.95;19.78
29467;BME280;60968;37.490;-122.288;2022-09-30T17:32:29;98455.63;;;37.20;18.55
29467;BME280;60968;37.490;-122.288;2022-09-30T17:35:30;98448.91;;;36.82;19.76
29467;BME280;60968;37.490;-122.288;2022-09-30T17:38:31;98462.75;;;36.59;19.78
29467;BME280;60968;37.490;-122.288;2022-09-30T17:41:33;98448.22;;;35.90;19.44
29467;BME280;60968;37.490;-122.288;2022-09-30T17:44:34;98444.84;;;36.16;19.74
29467;BME280;60968;37.490;-122.288;2022-09-30T17:47:35;98440.81;;;36.54;18.97
29467;BME280;60968;37.490;-122.288;2022-09-30T17:50:38;98437.88;;;37.11;18.28
29467;BME280;60968;37.490;-122.288;2022-09-30T17:53:40;98439.69;;;35.36;19.42
29467;BME280;60968;37.490;-122.288;2022-09-30T17:56:40;98433.72;;;32.87;21.62
29467;BME280;60968;37.490;-122.288;2022-09-30T17:59:41;98431.34;;;30.48;24.75
29467;BME280;60968;37.490;-122.288;2022-09-30T18:02:42;98432.16;;;29.53;26.67
29467;BME280;60968;37.490;-122.288;2022-09-30T18:05:43;98431.34;;;29.17;27.66
29467;BME280;60968;37.490;-122.288;2022-09-30T18:08:47;98428.59;;;28.72;27.59
29467;BME280;60968;37.490;-122.288;2022-09-30T18:11:48;98434.41;;;28.40;27.42
29467;BME280;60968;37.490;-122.288;2022-09-30T18:14:49;98425.81;;;28.64;28.32
29467;BME280;60968;37.490;-122.288;2022-09-30T18:17:50;98430.81;;;28.49;28.33
29467;BME280;60968;37.490;-122.288;2022-09-30T18:20:50;98420.25;;;28.48;27.69
29467;BME280;60968;37.490;-122.288;2022-09-30T18:23:53;98419.53;;;28.28;28.55
29467;BME280;60968;37.490;-122.288;2022-09-30T18:26:54;98420.50;;;28.27;27.63
29467;BME280;60968;37.490;-122.288;2022-09-30T18:29:55;98419.41;;;28.19;28.19
29467;BME280;60968;37.490;-122.288;2022-09-30T18:32:55;98413.38;;;28.17;27.62
29467;BME280;60968;37.490;-122.288;2022-09-30T18:35:59;98409.13;;;28.24;28.56
29467;BME280;60968;37.490;-122.288;2022-09-30T18:39:00;98416.41;;;28.04;27.68
29467;BME280;60968;37.490;-122.288;2022-09-30T18:42:01;98405.78;;;27.75;27.84